sensor_id;sensor_type;location;lat;lon;timestamp;pressure;altitude;pressure_sealevel;temperature;humidity
67015;BME280;1033;52.560;13.374;2023-03-24T00:00:29;99999.81;;;11.27;94.49
67015;BME280;1033;52.560;13.374;2023-03-24T00:03:12;99990.03;;;11.26;93.90
67015;BME280;1033;52.560;13.374;2023-03-24T00:05:46;99979.88;;;11.21;94.33
67015;BME280;1033;52.560;13.374;2023-03-24T00:08:37;99990.16;;;11.31;93.37
67015;BME280;1033;52.560;13.374;2023-03-24T00:11:25;99981.94;;;11.38;92.56
67015;BME280;1033;52.560;13.374;2023-03-24T00:14:04;99975.38;;;11.45;92.07
67015;BME280;1033;52.560;13.374;2023-03-24T00:16:45;99972.25;;;11.30;93.00
67015;BME280;1033;52.560;13.374;2023-03-24T00:19:32;99970.59;;;11.29;92.68
67015;BME280;1033;52.560;13.374;2023-03-24T00:22:07;99969.06;;;11.33;92.28
67015;BME280;1033;52.560;13.374;2023-03-24T00:24:50;99965.66;;;11.26;93.56
67015;BME280;1033;52.560;13.374;2023-03-24T00:27:33;99958.34;;;11.26;93.03
67015;BME280;1033;52.560;13.374;2023-03-24T00:30:12;99953.44;;;11.35;92.13
67015;BME280;1033;52.560;13.374;2023-03-24T00:32:46;99957.06;;;11.29;92.28
67015;BME280;1033;52.560;13.374;2023-03-24T00:35:22;99954.81;;;11.26;92.50
67015;BME280;1033;52.560;13.374;2023-03-24T00:37:57;99952.81;;;11.33;91.82
67015;BME280;1033;52.560;13.374;2023-03-24T00:40:49;99950.78;;;11.47;90.96
67015;BME280;1033;52.560;13.374;2023-03-24T00:43:22;99943.34;;;11.42;91.40
67015;BME280;1033;52.560;13.374;2023-03-24T00:45:58;99952.97;;;11.38;91.03
67015;BME280;1033;52.560;13.374;2023-03-24T00:48:35;99952.28;;;11.43;91.13
67015;BME280;1033;52.560;13.374;2023-03-24T00:51:27;99942.88;;;11.45;90.89
67015;BME280;1033;52.560;13.374;2023-03-24T00:54:07;99940.22;;;11.27;91.57
67015;BME280;1033;52.560;13.374;2023-03-24T00:56:45;99936.13;;;11.36;91.14
67015;BME280;1033;52.560;13.374;2023-03-24T00:59:17;99938.44;;;11.21;92.01
67015;BME280;1033;52.560;13.374;2023-03-24T01:01:50;99933.28;;;11.31;92.01
67015;BME280;1033;52.560;13.374;2023-03-24T01:04:21;99933.41;;;11.36;90.86
67015;BME280;1033;52.560;13.374;2023-03-24T01:07:01;99920.72;;;11.48;90.44
67015;BME280;1033;52.560;13.374;2023-03-24T01:09:33;99929.66;;;11.37;90.97
67015;BME280;1033;52.560;13.374;2023-03-24T01:12:11;99914.69;;;11.34;90.98
67015;BME280;1033;52.560;13.374;2023-03-24T01:14:54;99913.84;;;11.34;90.79
67015;BME280;1033;52.560;13.374;2023-03-24T01:17:30;99910.97;;;11.47;90.60
67015;BME280;1033;52.560;13.374;2023-03-24T01:20:08;99899.19;;;11.42;90.81
67015;BME280;1033;52.560;13.374;2023-03-24T01:22:44;99899.19;;;11.53;90.27
67015;BME280;1033;52.560;13.374;2023-03-24T01:25:23;99897.53;;;11.41;90.60
67015;BME280;1033;52.560;13.374;2023-03-24T01:28:01;99884.06;;;11.34;91.08
67015;BME280;1033;52.560;13.374;2023-03-24T01:30:46;99885.38;;;11.43;90.66
67015;BME280;1033;52.560;13.374;2023-03-24T01:33:18;99880.34;;;11.47;90.29
67015;BME280;1033;52.560;13.374;2023-03-24T01:35:57;99875.50;;;11.37;90.50
67015;BME280;1033;52.560;13.374;2023-03-24T01:38:42;99868.16;;;11.38;91.31
67015;BME280;1033;52.560;13.374;2023-03-24T01:41:20;99863.25;;;11.46;90.72
67015;BME280;1033;52.560;13.374;2023-03-24T01:43:53;99855.72;;;11.48;90.39
67015;BME280;1033;52.560;13.374;2023-03-24T01:46:33;99843.25;;;11.47;90.52
67015;BME280;1033;52.560;13.374;2023-03-24T01:49:10;99842.03;;;11.43;91.09
67015;BME280;1033;52.560;13.374;2023-03-24T01:51:48;99821.63;;;11.29;91.68
67015;BME280;1033;52.560;13.374;2023-03-24T01:54:35;99822.81;;;11.33;91.78
67015;BME280;1033;52.560;13.374;2023-03-24T01:57:13;99828.16;;;11.51;91.02
67015;BME280;1033;52.560;13.374;2023-03-24T01:59:49;99835.69;;;11.49;90.21
67015;BME280;1033;52.560;13.374;2023-03-24T02:02:48;99824.72;;;11.44;91.20
67015;BME280;1033;52.560;13.374;2023-03-24T02:05:31;99831.56;;;11.35;91.29
67015;BME280;1033;52.560;13.374;2023-03-24T02:08:10;99825.03;;;11.24;91.95
67015;BME280;1033;52.560;13.374;2023-03-24T02:10:47;99811.75;;;11.34;91.71
67015;BME280;1033;52.560;13.374;2023-03-24T02:13:22;99802.06;;;11.15;92.52
67015;BME280;1033;52.560;13.374;2023-03-24T02:16:28;99794.81;;;11.27;92.80
67015;BME280;1033;52.560;13.374;2023-03-24T02:19:34;99797.16;;;11.36;91.91
67015;BME280;1033;52.560;13.374;2023-03-24T02:22:38;99794.34;;;11.30;92.03
67015;BME280;1033;52.560;13.374;2023-03-24T02:26:02;99787.50;;;11.40;91.54
67015;BME280;1033;52.560;13.374;2023-03-24T02:29:19;99788.94;;;11.54;91.13
67015;BME280;1033;52.560;13.374;2023-03-24T02:32:33;99779.03;;;11.36;91.70
67015;BME280;1033;52.560;13.374;2023-03-24T02:35:54;99761.00;;;11.53;90.89
67015;BME280;1033;52.560;13.374;2023-03-24T02:41:41;99763.16;;;11.74;89.46
67015;BME280;1033;52.560;13.374;2023-03-24T02:44:20;99757.47;;;11.64;90.22
67015;BME280;1033;52.560;13.374;2023-03-24T02:47:03;99753.50;;;11.79;88.98
67015;BME280;1033;52.560;13.374;2023-03-24T02:49:45;99757.84;;;11.80;88.85
67015;BME280;1033;52.560;13.374;2023-03-24T02:52:25;99754.78;;;11.64;89.92
67015;BME280;1033;52.560;13.374;2023-03-24T02:55:03;99767.03;;;11.79;89.94
67015;BME280;1033;52.560;13.374;2023-03-24T02:57:41;99765.72;;;11.69;91.54
67015;BME280;1033;52.560;13.374;2023-03-24T03:00:45;99763.28;;;11.56;92.60
67015;BME280;1033;52.560;13.374;2023-03-24T03:03:50;99757.72;;;11.51;94.24
67015;BME280;1033;52.560;13.374;2023-03-24T03:06:28;99749.94;;;11.43;94.85
67015;BME280;1033;52.560;13.374;2023-03-24T03:09:03;99741.34;;;11.34;96.06
67015;BME280;1033;52.560;13.374;2023-03-24T03:11:42;99741.34;;;11.34;96.37
67015;BME280;1033;52.560;13.374;2023-03-24T03:14:23;99741.69;;;11.38;96.49
67015;BME280;1033;52.560;13.374;2023-03-24T03:17:04;99731.94;;;11.37;96.62
67015;BME280;1033;52.560;13.374;2023-03-24T03:19:44;99733.09;;;11.41;96.57
67015;BME280;1033;52.560;13.374;2023-03-24T03:22:23;99732.75;;;11.49;96.95
67015;BME280;1033;52.560;13.374;2023-03-24T03:25:00;99731.09;;;11.48;96.45
67015;BME280;1033;52.560;13.374;2023-03-24T03:27:39;99721.78;;;11.44;96.98
67015;BME280;1033;52.560;13.374;2023-03-24T03:30:22;99719.81;;;11.51;96.38
67015;BME280;1033;52.560;13.374;2023-03-24T03:33:00;99718.63;;;11.47;97.42
67015;BME280;1033;52.560;13.374;2023-03-24T03:35:37;99710.72;;;11.46;97.26
67015;BME280;1033;52.560;13.374;2023-03-24T03:38:14;99704.25;;;11.35;98.30
67015;BME280;1033;52.560;13.374;2023-03-24T03:40:55;99698.34;;;11.38;98.80
67015;BME280;1033;52.560;13.374;2023-03-24T03:43:34;99692.94;;;11.38;98.92
67015;BME280;1033;52.560;13.374;2023-03-24T03:46:17;99688.94;;;11.41;98.93
67015;BME280;1033;52.560;13.374;2023-03-24T03:48:50;99688.50;;;11.32;99.90
67015;BME280;1033;52.560;13.374;2023-03-24T03:51:22;99684.59;;;11.40;99.70
67015;BME280;1033;52.560;13.374;2023-03-24T03:54:04;99682.47;;;11.42;99.94
67015;BME280;1033;52.560;13.374;2023-03-24T03:56:44;99686.94;;;11.36;100.00
67015;BME280;1033;52.560;13.374;2023-03-24T03:59:32;99686.47;;;11.51;100.00
67015;BME280;1033;52.560;13.374;2023-03-24T04:02:26;99684.81;;;11.38;100.00
67015;BME280;1033;52.560;13.374;2023-03-24T04:05:18;99673.06;;;11.32;100.00
67015;BME280;1033;52.560;13.374;2023-03-24T04:08:25;99676.00;;;11.31;100.00
67015;BME280;1033;52.560;13.374;2023-03-24T04:11:39;99659.25;;;11.34;100.00
67015;BME280;1033;52.560;13.374;2023-03-24T04:15:00;99661.63;;;11.42;100.00
67015;BME280;1033;52.560;13.374;2023-03-24T04:18:12;99650.81;;;11.42;100.00
67015;BME280;1033;52.560;13.374;2023-03-24T04:21:24;99651.25;;;11.39;100.00
67015;BME280;1033;52.560;13.374;2023-03-24T04:24:17;99636.06;;;11.50;100.00
67015;BME280;1033;52.560;13.374;2023-03-24T04:27:05;99642.28;;;11.50;100.00
67015;BME280;1033;52.560;13.374;2023-03-24T04:29:58;99642.91;;;11.41;100.00
67015;BME280;1033;52.560;13.374;2023-03-24T04:32:50;99634.28;;;11.55;100.00
67015;BME280;1033;52.560;13.374;2023-03-24T04:35:44;99632.72;;;11.59;100.00
67015;BME280;1033;52.560;13.374;2023-03-24T04:38:37;99615.84;;;11.69;100.00
67015;BME280;1033;52.560;13.374;2023-03-24T04:41:32;99613.53;;;11.72;99.79
67015;BME280;1033;52.560;13.374;2023-03-24T04:44:21;99617.88;;;11.73;99.61
67015;BME280;1033;52.560;13.374;2023-03-24T04:47:33;99613.06;;;11.75;99.93
67015;BME280;1033;52.560;13.374;2023-03-24T04:50:51;99604.09;;;11.75;100.00
67015;BME280;1033;52.560;13.374;2023-03-24T04:53:53;99618.47;;;11.75;99.69
67015;BME280;1033;52.560;13.374;2023-03-24T04:56:37;99598.28;;;11.71;100.00
67015;BME280;1033;52.560;13.374;2023-03-24T04:59:20;99595.81;;;11.82;99.71
67015;BME280;1033;52.560;13.374;2023-03-24T05:01:57;99608.50;;;11.93;98.83
67015;BME280;1033;52.560;13.374;2023-03-24T05:04:33;99599.81;;;11.91;98.75
67015;BME280;1033;52.560;13.374;2023-03-24T05:07:18;99599.81;;;11.91;98.67
67015;BME280;1033;52.560;13.374;2023-03-24T05:09:55;99594.84;;;11.88;98.67
67015;BME280;1033;52.560;13.374;2023-03-24T05:12:35;99594.44;;;11.96;97.86
67015;BME280;1033;52.560;13.374;2023-03-24T05:15:28;99585.34;;;12.02;97.87
67015;BME280;1033;52.560;13.374;2023-03-24T05:18:26;99590.63;;;12.08;97.31
67015;BME280;1033;52.560;13.374;2023-03-24T05:21:00;99590.00;;;12.18;96.08
67015;BME280;1033;52.560;13.374;2023-03-24T05:23:47;99588.66;;;12.20;95.93
67015;BME280;1033;52.560;13.374;2023-03-24T05:26:21;99589.59;;;12.26;95.73
67015;BME280;1033;52.560;13.374;2023-03-24T05:29:11;99582.78;;;12.24;95.87
67015;BME280;1033;52.560;13.374;2023-03-24T05:32:05;99582.50;;;12.25;95.88
67015;BME280;1033;52.560;13.374;2023-03-24T05:35:04;99585.91;;;12.32;95.55
67015;BME280;1033;52.560;13.374;2023-03-24T05:37:43;99588.19;;;12.40;95.21
67015;BME280;1033;52.560;13.374;2023-03-24T05:40:24;99586.00;;;12.37;95.52
67015;BME280;1033;52.560;13.374;2023-03-24T05:43:18;99586.00;;;12.37;95.27
67015;BME280;1033;52.560;13.374;2023-03-24T05:46:11;99588.72;;;12.37;95.24
67015;BME280;1033;52.560;13.374;2023-03-24T05:48:48;99582.59;;;12.30;95.97
67015;BME280;1033;52.560;13.374;2023-03-24T05:51:21;99576.88;;;12.43;95.18
67015;BME280;1033;52.560;13.374;2023-03-24T05:54:06;99575.47;;;12.41;95.43
67015;BME280;1033;52.560;13.374;2023-03-24T05:57:18;99565.84;;;12.33;95.98
67015;BME280;1033;52.560;13.374;2023-03-24T06:00:21;99573.06;;;12.44;95.50
67015;BME280;1033;52.560;13.374;2023-03-24T06:03:01;99574.25;;;12.48;95.06
67015;BME280;1033;52.560;13.374;2023-03-24T06:05:50;99568.31;;;12.51;95.25
67015;BME280;1033;52.560;13.374;2023-03-24T06:08:24;99565.44;;;12.41;95.34
67015;BME280;1033;52.560;13.374;2023-03-24T06:10:59;99561.25;;;12.50;95.20
67015;BME280;1033;52.560;13.374;2023-03-24T06:13:47;99562.31;;;12.49;94.89
67015;BME280;1033;52.560;13.374;2023-03-24T06:16:42;99549.41;;;12.56;95.05
67015;BME280;1033;52.560;13.374;2023-03-24T06:19:36;99554.09;;;12.61;94.45
67015;BME280;1033;52.560;13.374;2023-03-24T06:26:20;99534.84;;;12.62;94.85
67015;BME280;1033;52.560;13.374;2023-03-24T06:29:00;99541.00;;;12.75;93.85
67015;BME280;1033;52.560;13.374;2023-03-24T06:31:36;99535.47;;;12.86;93.53
67015;BME280;1033;52.560;13.374;2023-03-24T06:34:09;99534.28;;;12.99;92.95
67015;BME280;1033;52.560;13.374;2023-03-24T06:36:52;99531.09;;;13.02;92.53
67015;BME280;1033;52.560;13.374;2023-03-24T06:39:26;99532.97;;;13.01;92.18
67015;BME280;1033;52.560;13.374;2023-03-24T06:42:02;99530.75;;;12.98;93.30
67015;BME280;1033;52.560;13.374;2023-03-24T06:44:43;99543.50;;;12.98;94.00
67015;BME280;1033;52.560;13.374;2023-03-24T06:47:15;99542.28;;;12.89;94.70
67015;BME280;1033;52.560;13.374;2023-03-24T06:49:48;99537.75;;;12.94;95.14
67015;BME280;1033;52.560;13.374;2023-03-24T06:52:22;99526.50;;;12.86;95.62
67015;BME280;1033;52.560;13.374;2023-03-24T06:54:56;99528.97;;;12.87;95.93
67015;BME280;1033;52.560;13.374;2023-03-24T06:57:31;99528.03;;;12.98;95.03
67015;BME280;1033;52.560;13.374;2023-03-24T07:00:27;99521.84;;;13.03;94.61
67015;BME280;1033;52.560;13.374;2023-03-24T07:03:18;99517.56;;;13.07;94.19
67015;BME280;1033;52.560;13.374;2023-03-24T07:06:13;99506.13;;;13.05;94.84
67015;BME280;1033;52.560;13.374;2023-03-24T07:08:53;99505.78;;;13.18;93.54
67015;BME280;1033;52.560;13.374;2023-03-24T07:11:27;99504.19;;;13.22;93.41
67015;BME280;1033;52.560;13.374;2023-03-24T07:14:03;99508.19;;;13.36;92.62
67015;BME280;1033;52.560;13.374;2023-03-24T07:16:41;99499.53;;;13.39;92.33
67015;BME280;1033;52.560;13.374;2023-03-24T07:19:51;99495.66;;;13.57;91.79
67015;BME280;1033;52.560;13.374;2023-03-24T07:22:40;99480.31;;;13.73;90.36
67015;BME280;1033;52.560;13.374;2023-03-24T07:25:36;99481.13;;;14.00;89.63
67015;BME280;1033;52.560;13.374;2023-03-24T07:28:18;99488.03;;;14.13;87.80
67015;BME280;1033;52.560;13.374;2023-03-24T07:30:52;99488.03;;;14.13;87.65
67015;BME280;1033;52.560;13.374;2023-03-24T07:33:27;99475.25;;;14.45;86.24
67015;BME280;1033;52.560;13.374;2023-03-24T07:35:58;99480.78;;;14.55;84.45
67015;BME280;1033;52.560;13.374;2023-03-24T07:38:36;99478.22;;;14.81;83.53
67015;BME280;1033;52.560;13.374;2023-03-24T07:41:11;99479.78;;;14.71;82.76
67015;BME280;1033;52.560;13.374;2023-03-24T07:43:50;99469.22;;;14.80;81.60
67015;BME280;1033;52.560;13.374;2023-03-24T07:46:32;99478.66;;;14.67;82.63
67015;BME280;1033;52.560;13.374;2023-03-24T07:49:05;99467.53;;;14.74;81.16
67015;BME280;1033;52.560;13.374;2023-03-24T07:52:00;99470.88;;;14.44;82.57
67015;BME280;1033;52.560;13.374;2023-03-24T07:54:38;99476.28;;;14.39;83.88
67015;BME280;1033;52.560;13.374;2023-03-24T07:57:15;99480.75;;;14.23;85.29
67015;BME280;1033;52.560;13.374;2023-03-24T07:59:49;99488.25;;;14.06;87.01
67015;BME280;1033;52.560;13.374;2023-03-24T08:03:15;99479.41;;;13.89;88.93
67015;BME280;1033;52.560;13.374;2023-03-24T08:06:09;99475.41;;;13.70;90.42
67015;BME280;1033;52.560;13.374;2023-03-24T08:08:51;99482.63;;;13.86;90.39
67015;BME280;1033;52.560;13.374;2023-03-24T08:11:25;99479.81;;;13.76;90.92
67015;BME280;1033;52.560;13.374;2023-03-24T08:14:00;99475.09;;;13.66;92.05
67015;BME280;1033;52.560;13.374;2023-03-24T08:16:32;99476.72;;;13.67;92.02
67015;BME280;1033;52.560;13.374;2023-03-24T08:19:08;99473.34;;;13.55;92.78
67015;BME280;1033;52.560;13.374;2023-03-24T08:21:43;99477.75;;;13.61;93.72
67015;BME280;1033;52.560;13.374;2023-03-24T08:24:21;99481.69;;;13.48;93.97
67015;BME280;1033;52.560;13.374;2023-03-24T08:26:51;99481.56;;;13.60;93.01
67015;BME280;1033;52.560;13.374;2023-03-24T08:29:27;99476.44;;;13.64;93.48
67015;BME280;1033;52.560;13.374;2023-03-24T08:31:58;99452.63;;;13.49;92.27
67015;BME280;1033;52.560;13.374;2023-03-24T08:34:29;99472.25;;;13.56;92.73
67015;BME280;1033;52.560;13.374;2023-03-24T08:37:01;99461.38;;;13.56;92.23
67015;BME280;1033;52.560;13.374;2023-03-24T08:39:33;99469.47;;;13.51;92.70
67015;BME280;1033;52.560;13.374;2023-03-24T08:42:07;99456.38;;;13.43;92.68
67015;BME280;1033;52.560;13.374;2023-03-24T08:44:48;99465.97;;;13.51;91.77
67015;BME280;1033;52.560;13.374;2023-03-24T08:47:29;99487.25;;;13.59;91.24
67015;BME280;1033;52.560;13.374;2023-03-24T08:50:04;99450.22;;;13.53;91.05
67015;BME280;1033;52.560;13.374;2023-03-24T08:52:41;99469.59;;;13.61;90.06
67015;BME280;1033;52.560;13.374;2023-03-24T08:55:16;99469.50;;;13.78;89.40
67015;BME280;1033;52.560;13.374;2023-03-24T08:58:00;99472.91;;;13.95;89.33
67015;BME280;1033;52.560;13.374;2023-03-24T09:00:40;99468.03;;;13.97;89.04
67015;BME280;1033;52.560;13.374;2023-03-24T09:03:16;99474.06;;;14.04;88.71
67015;BME280;1033;52.560;13.374;2023-03-24T09:05:56;99473.63;;;14.12;88.11
67015;BME280;1033;52.560;13.374;2023-03-24T09:08:33;99488.88;;;14.13;87.65
67015;BME280;1033;52.560;13.374;2023-03-24T09:11:14;99486.41;;;14.12;87.41
67015;BME280;1033;52.560;13.374;2023-03-24T09:13:53;99483.34;;;14.03;88.13
67015;BME280;1033;52.560;13.374;2023-03-24T09:16:28;99490.03;;;14.22;87.67
67015;BME280;1033;52.560;13.374;2023-03-24T09:19:03;99476.50;;;14.32;87.51
67015;BME280;1033;52.560;13.374;2023-03-24T09:21:39;99491.47;;;14.35;86.62
67015;BME280;1033;52.560;13.374;2023-03-24T09:24:15;99490.75;;;14.45;86.39
67015;BME280;1033;52.560;13.374;2023-03-24T09:27:02;99496.56;;;14.58;85.12
67015;BME280;1033;52.560;13.374;2023-03-24T09:29:37;99496.22;;;14.92;84.51
67015;BME280;1033;52.560;13.374;2023-03-24T09:32:13;99502.84;;;15.06;82.30
67015;BME280;1033;52.560;13.374;2023-03-24T09:34:48;99501.59;;;15.29;81.57
67015;BME280;1033;52.560;13.374;2023-03-24T09:37:27;99508.72;;;15.45;81.13
67015;BME280;1033;52.560;13.374;2023-03-24T09:40:09;99511.53;;;15.55;80.87
67015;BME280;1033;52.560;13.374;2023-03-24T09:42:49;99520.59;;;15.86;79.56
67015;BME280;1033;52.560;13.374;2023-03-24T09:45:26;99514.91;;;16.18;77.31
67015;BME280;1033;52.560;13.374;2023-03-24T09:48:06;99517.09;;;16.16;75.98
67015;BME280;1033;52.560;13.374;2023-03-24T09:50:48;99524.75;;;16.39;75.57
67015;BME280;1033;52.560;13.374;2023-03-24T09:53:28;99516.56;;;16.49;74.61
67015;BME280;1033;52.560;13.374;2023-03-24T09:56:12;99529.94;;;16.35;75.21
67015;BME280;1033;52.560;13.374;2023-03-24T09:58:52;99510.56;;;16.12;75.63
67015;BME280;1033;52.560;13.374;2023-03-24T10:01:26;99526.13;;;16.31;74.94
67015;BME280;1033;52.560;13.374;2023-03-24T10:04:13;99534.84;;;16.38;74.28
67015;BME280;1033;52.560;13.374;2023-03-24T10:06:56;99529.34;;;16.03;74.75
67015;BME280;1033;52.560;13.374;2023-03-24T10:09:37;99528.53;;;15.82;75.99
67015;BME280;1033;52.560;13.374;2023-03-24T10:12:20;99512.97;;;15.93;76.31
67015;BME280;1033;52.560;13.374;2023-03-24T10:15:09;99531.03;;;16.24;75.26
67015;BME280;1033;52.560;13.374;2023-03-24T10:21:09;99530.22;;;16.44;72.04
67015;BME280;1033;52.560;13.374;2023-03-24T10:23:46;99528.56;;;16.43;70.22
67015;BME280;1033;52.560;13.374;2023-03-24T10:26:31;99527.47;;;16.49;69.03
67015;BME280;1033;52.560;13.374;2023-03-24T10:29:21;99526.44;;;16.60;67.99
67015;BME280;1033;52.560;13.374;2023-03-24T10:31:58;99517.13;;;16.61;67.45
67015;BME280;1033;52.560;13.374;2023-03-24T10:34:33;99520.97;;;16.65;67.86
67015;BME280;1033;52.560;13.374;2023-03-24T10:40:30;99531.25;;;17.09;67.00
67015;BME280;1033;52.560;13.374;2023-03-24T10:43:02;99514.25;;;17.27;67.02
67015;BME280;1033;52.560;13.374;2023-03-24T10:45:45;99518.81;;;17.47;66.37
67015;BME280;1033;52.560;13.374;2023-03-24T10:48:35;99533.56;;;17.51;66.34
67015;BME280;1033;52.560;13.374;2023-03-24T10:51:16;99521.38;;;17.18;67.18
67015;BME280;1033;52.560;13.374;2023-03-24T10:53:47;99525.78;;;17.09;67.80
67015;BME280;1033;52.560;13.374;2023-03-24T10:56:35;99525.22;;;17.12;67.58
67015;BME280;1033;52.560;13.374;2023-03-24T10:59:22;99534.16;;;17.37;66.15
67015;BME280;1033;52.560;13.374;2023-03-24T11:02:01;99527.50;;;17.54;65.63
67015;BME280;1033;52.560;13.374;2023-03-24T11:04:51;99529.00;;;17.21;65.98
67015;BME280;1033;52.560;13.374;2023-03-24T11:07:28;99535.31;;;17.16;65.92
67015;BME280;1033;52.560;13.374;2023-03-24T11:16:08;99553.06;;;17.19;66.73
67015;BME280;1033;52.560;13.374;2023-03-24T11:18:54;99546.50;;;17.20;66.40
67015;BME280;1033;52.560;13.374;2023-03-24T11:21:25;99559.00;;;17.46;65.76
67015;BME280;1033;52.560;13.374;2023-03-24T11:23:57;99539.63;;;17.43;65.18
67015;BME280;1033;52.560;13.374;2023-03-24T11:26:32;99541.53;;;17.96;63.64
67015;BME280;1033;52.560;13.374;2023-03-24T11:29:04;99527.31;;;17.94;62.84
67015;BME280;1033;52.560;13.374;2023-03-24T11:31:36;99540.44;;;18.36;62.35
67015;BME280;1033;52.560;13.374;2023-03-24T11:34:09;99539.38;;;18.95;61.53
67015;BME280;1033;52.560;13.374;2023-03-24T11:36:42;99537.38;;;19.05;60.79
67015;BME280;1033;52.560;13.374;2023-03-24T11:39:20;99539.13;;;19.20;61.06
67015;BME280;1033;52.560;13.374;2023-03-24T11:42:12;99544.19;;;18.45;60.28
67015;BME280;1033;52.560;13.374;2023-03-24T11:44:47;99542.03;;;18.42;61.16
67015;BME280;1033;52.560;13.374;2023-03-24T11:47:21;99549.66;;;18.11;61.03
67015;BME280;1033;52.560;13.374;2023-03-24T11:50:00;99545.63;;;17.99;60.32
67015;BME280;1033;52.560;13.374;2023-03-24T11:52:34;99547.66;;;17.78;61.42
67015;BME280;1033;52.560;13.374;2023-03-24T11:55:13;99554.81;;;17.74;61.91
67015;BME280;1033;52.560;13.374;2023-03-24T11:57:50;99572.16;;;17.39;62.29
67015;BME280;1033;52.560;13.374;2023-03-24T12:00:23;99579.31;;;17.15;64.10
67015;BME280;1033;52.560;13.374;2023-03-24T12:03:19;99578.22;;;17.21;63.99
67015;BME280;1033;52.560;13.374;2023-03-24T12:06:00;99571.00;;;17.55;63.63
67015;BME280;1033;52.560;13.374;2023-03-24T12:08:43;99554.06;;;17.43;62.63
67015;BME280;1033;52.560;13.374;2023-03-24T12:11:18;99545.31;;;17.51;62.70
67015;BME280;1033;52.560;13.374;2023-03-24T12:13:51;99543.03;;;17.73;62.57
67015;BME280;1033;52.560;13.374;2023-03-24T12:22:34;99566.88;;;18.17;60.41
67015;BME280;1033;52.560;13.374;2023-03-24T12:25:23;99561.03;;;17.90;60.37
67015;BME280;1033;52.560;13.374;2023-03-24T12:28:04;99576.72;;;17.64;60.72
67015;BME280;1033;52.560;13.374;2023-03-24T12:30:42;99580.91;;;17.36;59.93
67015;BME280;1033;52.560;13.374;2023-03-24T12:33:24;99586.41;;;17.31;60.68
67015;BME280;1033;52.560;13.374;2023-03-24T12:36:24;99589.72;;;17.08;60.49
67015;BME280;1033;52.560;13.374;2023-03-24T12:39:10;99587.81;;;17.13;58.51
67015;BME280;1033;52.560;13.374;2023-03-24T12:41:46;99583.69;;;17.16;57.18
67015;BME280;1033;52.560;13.374;2023-03-24T12:44:27;99586.13;;;17.32;56.42
67015;BME280;1033;52.560;13.374;2023-03-24T12:47:11;99563.75;;;17.05;55.62
67015;BME280;1033;52.560;13.374;2023-03-24T12:50:02;99567.31;;;17.06;56.34
67015;BME280;1033;52.560;13.374;2023-03-24T12:52:59;99559.13;;;17.06;56.16
67015;BME280;1033;52.560;13.374;2023-03-24T12:55:42;99554.22;;;16.92;55.71
67015;BME280;1033;52.560;13.374;2023-03-24T12:58:18;99578.28;;;16.80;55.43
67015;BME280;1033;52.560;13.374;2023-03-24T13:00:59;99577.19;;;16.61;56.20
67015;BME280;1033;52.560;13.374;2023-03-24T13:03:34;99582.66;;;16.66;57.22
67015;BME280;1033;52.560;13.374;2023-03-24T13:06:15;99582.09;;;16.44;56.66
67015;BME280;1033;52.560;13.374;2023-03-24T13:09:01;99583.16;;;16.43;56.08
67015;BME280;1033;52.560;13.374;2023-03-24T13:11:40;99578.53;;;16.28;54.43
67015;BME280;1033;52.560;13.374;2023-03-24T13:14:17;99582.03;;;16.08;52.50
67015;BME280;1033;52.560;13.374;2023-03-24T13:16:50;99603.31;;;16.01;52.38
67015;BME280;1033;52.560;13.374;2023-03-24T13:19:23;99586.38;;;15.94;52.07
67015;BME280;1033;52.560;13.374;2023-03-24T13:21:54;99600.25;;;15.93;52.38
67015;BME280;1033;52.560;13.374;2023-03-24T13:24:24;99596.41;;;15.84;52.50
67015;BME280;1033;52.560;13.374;2023-03-24T13:27:04;99591.25;;;15.82;52.43
67015;BME280;1033;52.560;13.374;2023-03-24T13:30:12;99587.72;;;15.87;52.42
67015;BME280;1033;52.560;13.374;2023-03-24T13:32:47;99597.81;;;15.86;52.62
67015;BME280;1033;52.560;13.374;2023-03-24T13:35:37;99595.63;;;15.88;52.73
67015;BME280;1033;52.560;13.374;2023-03-24T13:38:15;99595.94;;;15.97;51.93
67015;BME280;1033;52.560;13.374;2023-03-24T13:40:51;99595.69;;;16.08;51.79
67015;BME280;1033;52.560;13.374;2023-03-24T13:43:27;99621.88;;;16.04;51.89
67015;BME280;1033;52.560;13.374;2023-03-24T13:46:06;99632.78;;;16.09;52.48
67015;BME280;1033;52.560;13.374;2023-03-24T13:48:44;99655.59;;;15.78;52.51
67015;BME280;1033;52.560;13.374;2023-03-24T13:51:20;99668.03;;;15.59;53.31
67015;BME280;1033;52.560;13.374;2023-03-24T13:53:53;99670.66;;;15.44;54.05
67015;BME280;1033;52.560;13.374;2023-03-24T13:56:30;99667.97;;;15.49;54.75
67015;BME280;1033;52.560;13.374;2023-03-24T13:59:24;99682.63;;;15.38;55.17
67015;BME280;1033;52.560;13.374;2023-03-24T14:02:22;99669.97;;;15.21;55.90
67015;BME280;1033;52.560;13.374;2023-03-24T14:05:14;99681.97;;;15.26;56.19
67015;BME280;1033;52.560;13.374;2023-03-24T14:08:16;99659.34;;;15.20;55.94
67015;BME280;1033;52.560;13.374;2023-03-24T14:10:50;99657.19;;;15.27;56.52
67015;BME280;1033;52.560;13.374;2023-03-24T14:13:45;99662.91;;;15.26;55.79
67015;BME280;1033;52.560;13.374;2023-03-24T14:16:48;99656.38;;;15.27;55.98
67015;BME280;1033;52.560;13.374;2023-03-24T14:19:30;99653.75;;;15.42;56.44
67015;BME280;1033;52.560;13.374;2023-03-24T14:22:14;99672.72;;;15.63;56.05
67015;BME280;1033;52.560;13.374;2023-03-24T14:24:57;99658.84;;;15.75;55.77
67015;BME280;1033;52.560;13.374;2023-03-24T14:27:36;99641.97;;;15.83;55.82
67015;BME280;1033;52.560;13.374;2023-03-24T14:30:18;99616.59;;;15.73;54.71
67015;BME280;1033;52.560;13.374;2023-03-24T14:32:52;99600.16;;;15.57;57.25
67015;BME280;1033;52.560;13.374;2023-03-24T14:35:31;99566.88;;;15.55;57.94
67015;BME280;1033;52.560;13.374;2023-03-24T14:38:04;99539.66;;;15.71;57.88
67015;BME280;1033;52.560;13.374;2023-03-24T14:40:49;99557.22;;;16.10;56.34
67015;BME280;1033;52.560;13.374;2023-03-24T14:43:24;99582.31;;;16.12;56.51
67015;BME280;1033;52.560;13.374;2023-03-24T14:46:00;99586.09;;;15.91;57.07